createdAt,value
2019-02-06T00:00:41.392Z,3.44
2019-02-06T00:01:42.423Z,3.41
2019-02-06T00:04:24.438Z,3.40
2019-02-06T00:05:33.100Z,3.34
2019-02-06T00:08:34.813Z,3.37
2019-02-06T00:09:46.995Z,3.32
2019-02-06T00:10:44.448Z,3.34
2019-02-06T00:11:44.470Z,3.34
2019-02-06T00:12:34.816Z,3.44
2019-02-06T00:14:53.137Z,3.40
2019-02-06T00:15:53.672Z,3.28
2019-02-06T00:16:53.276Z,3.45
2019-02-06T00:17:54.713Z,3.37
2019-02-06T00:18:53.267Z,3.42
2019-02-06T00:19:53.023Z,3.32
2019-02-06T00:20:54.197Z,3.28
2019-02-06T00:21:53.082Z,3.37
2019-02-06T00:22:53.079Z,3.28
2019-02-06T00:23:53.192Z,3.31
2019-02-06T00:24:52.986Z,3.37
2019-02-06T00:25:52.943Z,3.32
2019-02-06T00:26:55.673Z,3.31
2019-02-06T00:27:53.163Z,3.40
2019-02-06T00:28:53.867Z,3.31
2019-02-06T00:29:54.880Z,3.31
2019-02-06T00:30:54.358Z,3.32
2019-02-06T00:31:53.410Z,3.32
2019-02-06T00:32:53.100Z,3.29
2019-02-06T00:34:10.458Z,3.31
2019-02-06T00:38:49.011Z,3.28
2019-02-06T00:44:40.424Z,3.28
2019-02-06T00:45:40.652Z,3.29
2019-02-06T00:46:41.314Z,3.32
2019-02-06T00:56:21.563Z,3.31
2019-02-06T00:57:21.626Z,3.25
2019-02-06T00:58:21.434Z,3.28
2019-02-06T00:59:21.443Z,3.25
2019-02-06T01:00:22.695Z,3.28
2019-02-06T01:01:24.371Z,3.22
2019-02-06T01:04:05.675Z,3.29
2019-02-06T01:06:23.232Z,3.40
2019-02-06T01:07:23.342Z,3.28
2019-02-06T01:08:23.410Z,3.31
2019-02-06T01:09:24.673Z,3.28
2019-02-06T01:10:23.326Z,3.21
2019-02-06T01:11:23.325Z,3.25
2019-02-06T01:12:23.158Z,3.31
2019-02-06T01:16:19.227Z,3.22
2019-02-06T01:18:39.269Z,3.26
2019-02-06T01:19:39.230Z,3.19
2019-02-06T01:20:39.197Z,3.19
2019-02-06T01:21:39.428Z,3.26
2019-02-06T01:22:39.136Z,3.26
2019-02-06T01:23:39.109Z,3.25
2019-02-06T01:24:39.218Z,3.19
2019-02-06T01:25:39.089Z,3.22
2019-02-06T01:26:39.128Z,3.29
2019-02-06T01:27:38.996Z,3.31
2019-02-06T01:28:39.666Z,3.21
2019-02-06T01:29:49.149Z,3.22
2019-02-06T01:32:32.376Z,3.21
2019-02-06T01:33:32.669Z,3.22
2019-02-06T01:34:32.564Z,3.23
2019-02-06T01:35:32.638Z,3.25
2019-02-06T01:36:32.365Z,3.29
2019-02-06T01:37:32.457Z,3.25
2019-02-06T01:38:33.223Z,3.23
2019-02-06T01:39:32.271Z,3.22
2019-02-06T01:40:32.314Z,3.25
2019-02-06T01:41:33.013Z,3.25
2019-02-06T01:42:32.272Z,3.21
2019-02-06T01:43:44.027Z,3.25
2019-02-06T01:46:56.511Z,3.29
2019-02-06T01:49:39.543Z,3.28
2019-02-06T01:50:39.655Z,3.22
2019-02-06T01:51:39.729Z,3.26
2019-02-06T01:52:39.568Z,3.22
2019-02-06T01:54:59.960Z,3.28
2019-02-06T01:57:29.536Z,3.31
2019-02-06T02:06:02.411Z,3.28
2019-02-06T02:06:59.010Z,3.26
2019-02-06T02:07:59.188Z,3.25
2019-02-06T02:08:58.900Z,3.23
2019-02-06T02:09:58.906Z,3.16
2019-02-06T02:10:59.555Z,3.21
2019-02-06T02:11:59.066Z,3.21
2019-02-06T02:12:58.838Z,3.19
2019-02-06T02:15:24.413Z,3.28
2019-02-06T02:19:58.712Z,3.21
2019-02-06T02:24:29.066Z,3.19
2019-02-06T02:25:29.061Z,3.25
2019-02-06T02:26:29.122Z,3.21
2019-02-06T02:27:29.143Z,3.10
2019-02-06T02:28:28.953Z,3.13
2019-02-06T02:29:29.056Z,3.11
2019-02-06T02:30:28.913Z,3.11
2019-02-06T02:31:28.869Z,3.14
2019-02-06T02:32:28.994Z,3.13
2019-02-06T02:33:28.933Z,3.03
2019-02-06T02:34:29.615Z,3.16
2019-02-06T02:35:29.548Z,3.18
2019-02-06T02:36:29.344Z,3.16
2019-02-06T02:37:28.975Z,3.22
2019-02-06T02:38:28.813Z,3.28
2019-02-06T02:39:29.491Z,3.31
2019-02-06T02:43:21.457Z,3.16
2019-02-06T02:44:21.729Z,3.18
2019-02-06T02:45:21.340Z,3.19
2019-02-06T02:46:22.025Z,3.16
2019-02-06T02:47:21.206Z,3.22
2019-02-06T02:48:21.260Z,3.19
2019-02-06T02:49:21.197Z,3.31
2019-02-06T02:50:21.295Z,3.21
2019-02-06T02:51:21.206Z,3.28
2019-02-06T02:52:22.950Z,3.26
2019-02-06T02:53:21.133Z,3.26
2019-02-06T02:54:21.284Z,3.14
2019-02-06T02:55:21.194Z,3.22
2019-02-06T02:56:21.056Z,3.28
2019-02-06T02:57:21.132Z,3.28
2019-02-06T02:58:21.051Z,3.31
2019-02-06T02:59:22.007Z,3.31
2019-02-06T03:00:23.877Z,3.28
2019-02-06T03:01:21.135Z,3.25
2019-02-06T03:02:21.079Z,3.19
2019-02-06T03:03:21.142Z,3.19
2019-02-06T03:04:21.933Z,3.21
2019-02-06T03:05:21.093Z,3.14
2019-02-06T03:06:28.180Z,3.18
2019-02-06T03:07:22.072Z,3.16
2019-02-06T03:08:20.923Z,3.19
2019-02-06T03:09:21.049Z,3.18
2019-02-06T03:10:21.408Z,3.19
2019-02-06T03:11:30.958Z,3.14
2019-02-06T03:13:42.383Z,3.26
2019-02-06T03:14:43.096Z,3.21
2019-02-06T03:15:43.355Z,3.25
2019-02-06T03:16:42.665Z,3.18
2019-02-06T03:17:42.415Z,3.18
2019-02-06T03:18:42.463Z,3.28
2019-02-06T03:19:42.356Z,3.22
2019-02-06T03:20:42.351Z,3.21
2019-02-06T03:21:42.345Z,3.22
2019-02-06T03:22:42.242Z,3.25
2019-02-06T03:23:43.326Z,3.25
2019-02-06T03:24:42.216Z,3.19
2019-02-06T03:25:42.370Z,3.22
2019-02-06T03:26:42.254Z,3.28
2019-02-06T03:27:42.206Z,3.34
2019-02-06T03:28:42.265Z,3.31
2019-02-06T03:29:43.037Z,3.32
2019-02-06T03:32:11.354Z,3.34
2019-02-06T03:33:11.034Z,3.32
2019-02-06T03:34:11.067Z,3.26
2019-02-06T03:35:19.019Z,3.29
2019-02-06T03:36:17.964Z,3.26
2019-02-06T03:37:20.232Z,3.29
2019-02-06T03:38:10.920Z,3.31
2019-02-06T03:39:19.841Z,3.26
2019-02-06T03:40:11.093Z,3.29
2019-02-06T03:42:44.643Z,3.31
2019-02-06T03:43:55.808Z,3.32
2019-02-06T03:44:45.034Z,3.36
2019-02-06T03:45:52.265Z,3.31
2019-02-06T03:46:52.519Z,3.29
2019-02-06T03:47:54.281Z,3.31
2019-02-06T03:48:44.862Z,3.29
2019-02-06T03:49:44.977Z,3.29
2019-02-06T03:50:45.045Z,3.34
2019-02-06T03:51:46.488Z,3.34
2019-02-06T03:52:44.680Z,3.36
2019-02-06T03:53:44.461Z,3.29
2019-02-06T03:54:44.456Z,3.32
2019-02-06T03:55:45.858Z,3.31
2019-02-06T03:56:55.078Z,3.36
2019-02-06T03:57:44.815Z,3.32
2019-02-06T04:00:04.153Z,3.29
2019-02-06T04:01:12.966Z,3.32
2019-02-06T04:02:14.574Z,3.22
2019-02-06T04:03:04.354Z,3.25
2019-02-06T04:04:07.188Z,3.25
2019-02-06T04:05:04.201Z,3.29
2019-02-06T04:06:04.606Z,3.21
2019-02-06T04:07:04.254Z,3.18
2019-02-06T04:08:04.200Z,3.25
2019-02-06T04:09:04.931Z,3.22
2019-02-06T04:10:03.905Z,3.22
2019-02-06T04:11:03.943Z,3.21
2019-02-06T04:12:04.398Z,3.29
2019-02-06T04:13:03.921Z,3.21
2019-02-06T04:14:03.864Z,3.16
2019-02-06T04:15:04.459Z,3.23
2019-02-06T04:16:03.948Z,3.34
2019-02-06T04:17:03.914Z,3.34
2019-02-06T04:18:03.827Z,3.31
2019-02-06T04:19:03.781Z,3.29
2019-02-06T04:20:03.832Z,3.29
2019-02-06T04:22:55.742Z,3.25
2019-02-06T04:23:56.187Z,3.26
2019-02-06T04:24:55.506Z,3.25
2019-02-06T04:25:56.586Z,3.25
2019-02-06T04:26:55.309Z,3.22
2019-02-06T04:27:55.266Z,3.32
2019-02-06T04:28:55.398Z,3.29
2019-02-06T04:34:14.588Z,3.22
2019-02-06T04:35:15.002Z,3.22
2019-02-06T04:36:15.407Z,3.19
2019-02-06T04:37:14.795Z,3.14
2019-02-06T04:38:15.430Z,3.21
2019-02-06T04:39:23.014Z,3.14
2019-02-06T04:41:34.170Z,3.14
2019-02-06T04:42:41.568Z,3.13
2019-02-06T04:47:10.264Z,3.14
2019-02-06T04:48:10.439Z,3.13
2019-02-06T04:49:10.370Z,3.03
2019-02-06T04:50:11.251Z,3.00
2019-02-06T04:51:10.746Z,2.90
2019-02-06T04:52:19.090Z,2.93
2019-02-06T04:53:10.279Z,3.03
2019-02-06T04:56:50.467Z,2.90
2019-02-06T04:57:50.493Z,2.92
2019-02-06T04:58:50.468Z,2.98
2019-02-06T04:59:51.197Z,2.87
2019-02-06T05:00:51.368Z,2.92
2019-02-06T05:01:50.425Z,2.83
2019-02-06T05:02:50.251Z,2.75
2019-02-06T05:03:50.206Z,2.75
2019-02-06T05:04:50.222Z,2.74
2019-02-06T05:05:51.044Z,2.67
2019-02-06T05:06:50.089Z,2.75
2019-02-06T05:07:50.175Z,2.64
2019-02-06T05:08:51.136Z,2.61
2019-02-06T05:09:50.141Z,2.54
2019-02-06T05:10:58.537Z,2.47
2019-02-06T05:11:59.311Z,2.51
2019-02-06T05:13:01.646Z,2.64
2019-02-06T05:14:01.239Z,2.61
2019-02-06T05:14:57.688Z,2.53
2019-02-06T05:15:59.235Z,2.60
2019-02-06T05:16:50.998Z,2.57
2019-02-06T05:17:59.411Z,2.69
2019-02-06T05:18:59.151Z,2.72
2019-02-06T05:20:00.400Z,2.75
2019-02-06T05:22:11.416Z,2.71
2019-02-06T05:23:10.905Z,2.61
2019-02-06T05:27:14.248Z,2.43
2019-02-06T05:28:23.085Z,2.43
2019-02-06T05:29:25.188Z,2.32
2019-02-06T05:30:14.352Z,2.28
2019-02-06T05:31:14.403Z,2.25
2019-02-06T05:32:14.182Z,2.24
2019-02-06T05:33:14.489Z,2.26
2019-02-06T05:34:14.165Z,2.20
2019-02-06T05:35:14.249Z,2.15
2019-02-06T05:36:14.132Z,2.07
2019-02-06T05:37:14.110Z,2.11
2019-02-06T05:38:24.866Z,2.15
2019-02-06T05:44:48.883Z,1.88
2019-02-06T05:45:49.963Z,1.87
2019-02-06T05:46:49.176Z,1.89
2019-02-06T05:50:33.454Z,1.84
2019-02-06T05:51:42.738Z,1.87
2019-02-06T05:52:49.056Z,1.91
2019-02-06T05:56:15.197Z,1.87
2019-02-06T05:57:15.363Z,1.80
2019-02-06T05:58:15.371Z,1.73
2019-02-06T05:59:15.106Z,1.77
2019-02-06T06:00:15.450Z,1.77
2019-02-06T06:01:15.468Z,1.66
2019-02-06T06:02:15.227Z,1.71
2019-02-06T06:03:15.011Z,1.56
2019-02-06T06:04:17.011Z,1.58
2019-02-06T06:05:15.093Z,1.70
2019-02-06T06:06:15.589Z,1.66
2019-02-06T06:07:23.962Z,1.68
2019-02-06T06:10:58.801Z,1.84
2019-02-06T06:13:52.053Z,1.80
2019-02-06T06:14:52.269Z,1.88
2019-02-06T06:15:54.725Z,1.88
2019-02-06T06:18:33.354Z,1.80
2019-02-06T06:19:33.495Z,1.71
2019-02-06T06:20:33.461Z,1.71
2019-02-06T06:22:51.346Z,1.67
2019-02-06T06:23:51.446Z,1.68
2019-02-06T06:25:01.867Z,1.66
2019-02-06T06:25:51.366Z,1.67
2019-02-06T06:26:52.387Z,1.67
2019-02-06T06:27:51.374Z,1.62
2019-02-06T06:28:51.376Z,1.66
2019-02-06T06:29:51.331Z,1.58
2019-02-06T06:30:51.248Z,1.67
2019-02-06T06:35:02.437Z,1.62
2019-02-06T06:36:02.548Z,1.60
2019-02-06T06:37:02.355Z,1.62
2019-02-06T06:38:03.897Z,1.56
2019-02-06T06:39:02.474Z,1.56
2019-02-06T06:40:02.335Z,1.50
2019-02-06T06:41:04.229Z,1.50
2019-02-06T06:42:03.478Z,1.45
2019-02-06T06:43:16.337Z,1.53
2019-02-06T06:44:13.301Z,1.49
2019-02-06T06:46:54.118Z,1.45
2019-02-06T06:47:55.495Z,1.53
2019-02-06T06:48:54.268Z,1.50
2019-02-06T06:51:12.753Z,1.59
2019-02-06T06:52:14.200Z,1.48
2019-02-06T06:53:12.747Z,1.59
2019-02-06T06:54:12.711Z,1.60
2019-02-06T06:55:12.808Z,1.60
2019-02-06T06:56:12.955Z,1.56
2019-02-06T06:57:12.747Z,1.60
2019-02-06T06:58:15.721Z,1.63
2019-02-06T06:59:12.761Z,1.74
2019-02-06T07:00:12.845Z,1.84
2019-02-06T07:01:13.586Z,1.73
2019-02-06T07:02:16.150Z,1.84
2019-02-06T07:03:13.086Z,1.91
2019-02-06T07:04:14.612Z,1.88
2019-02-06T07:05:12.641Z,1.92
2019-02-06T07:07:35.310Z,2.00
2019-02-06T07:08:35.165Z,2.06
2019-02-06T07:09:46.418Z,2.08
2019-02-06T07:14:15.204Z,2.26
2019-02-06T07:16:33.831Z,2.31
2019-02-06T07:19:27.310Z,2.33
2019-02-06T07:22:53.792Z,2.38
2019-02-06T07:24:18.241Z,2.36
2019-02-06T07:24:53.908Z,2.54
2019-02-06T07:27:17.101Z,2.54
2019-02-06T07:28:11.041Z,2.56
2019-02-06T07:30:28.474Z,2.54
2019-02-06T07:31:28.329Z,2.56
2019-02-06T07:32:28.608Z,2.42
2019-02-06T07:33:36.922Z,2.38
2019-02-06T07:34:37.044Z,2.28
2019-02-06T07:36:48.805Z,2.43
2019-02-06T07:37:56.193Z,2.44
2019-02-06T07:38:59.104Z,2.56
2019-02-06T07:39:57.119Z,2.49
2019-02-06T07:40:56.871Z,2.60
2019-02-06T07:41:47.967Z,2.75
2019-02-06T07:42:48.000Z,2.74
2019-02-06T07:43:47.881Z,2.75
2019-02-06T07:44:47.800Z,2.69
2019-02-06T07:45:47.999Z,2.79
2019-02-06T07:48:06.801Z,2.74
2019-02-06T07:49:07.288Z,2.72
2019-02-06T07:50:06.889Z,2.98
2019-02-06T07:51:06.591Z,3.03
2019-02-06T07:52:07.186Z,3.21
2019-02-06T07:53:16.271Z,3.10
2019-02-06T07:54:06.975Z,3.03
2019-02-06T07:55:07.262Z,3.05
2019-02-06T07:57:35.240Z,3.53
2019-02-06T07:58:38.890Z,3.95
2019-02-06T07:59:35.862Z,3.80
2019-02-06T08:01:55.203Z,3.65
2019-02-06T08:02:55.579Z,3.59
2019-02-06T08:03:54.689Z,3.74
2019-02-06T08:04:55.528Z,3.86
2019-02-06T08:06:01.749Z,4.24
2019-02-06T08:06:54.778Z,4.30
2019-02-06T08:07:54.869Z,4.31
2019-02-06T08:08:54.689Z,4.13
2019-02-06T08:09:55.567Z,4.24
2019-02-06T08:13:37.071Z,4.17
2019-02-06T08:17:17.989Z,4.42
2019-02-06T08:18:17.998Z,4.17
2019-02-06T08:19:18.270Z,3.98
2019-02-06T08:20:18.034Z,3.80
2019-02-06T08:23:31.245Z,3.99
2019-02-06T08:24:31.411Z,4.10
2019-02-06T08:25:31.532Z,4.74
2019-02-06T08:26:31.976Z,4.71
2019-02-06T08:27:31.248Z,5.44
2019-02-06T08:28:42.383Z,5.72
2019-02-06T08:29:31.406Z,6.64
2019-02-06T08:30:46.577Z,7.33
2019-02-06T08:31:31.238Z,6.96
2019-02-06T08:33:51.068Z,7.03
2019-02-06T08:34:52.847Z,7.05
2019-02-06T08:35:51.012Z,7.20
2019-02-06T08:36:51.114Z,6.96
2019-02-06T08:37:51.357Z,6.89
2019-02-06T08:38:51.710Z,6.33
2019-02-06T08:39:51.032Z,6.38
2019-02-06T08:40:51.028Z,6.38
2019-02-06T08:41:52.010Z,6.49
2019-02-06T08:42:52.610Z,6.64
2019-02-06T08:43:50.952Z,6.54
2019-02-06T08:44:50.922Z,5.91
2019-02-06T08:45:51.983Z,6.22
2019-02-06T08:46:50.876Z,6.16
2019-02-06T08:47:51.035Z,6.17
2019-02-06T08:48:51.022Z,6.09
2019-02-06T08:49:51.900Z,6.38
2019-02-06T08:50:50.954Z,6.51
2019-02-06T08:51:52.624Z,6.64
2019-02-06T08:52:50.945Z,7.61
2019-02-06T08:53:50.896Z,7.76
2019-02-06T08:54:50.815Z,7.32
2019-02-06T08:55:50.821Z,7.17
2019-02-06T08:56:51.595Z,6.77
2019-02-06T08:57:51.682Z,6.63
2019-02-06T08:58:50.815Z,6.49
2019-02-06T08:59:50.850Z,6.78
2019-02-06T09:00:50.780Z,6.99
2019-02-06T09:01:50.748Z,7.00
2019-02-06T09:02:50.795Z,6.56
2019-02-06T09:03:51.670Z,6.57
2019-02-06T09:04:56.006Z,6.52
2019-02-06T09:05:50.703Z,6.30
2019-02-06T09:06:50.710Z,6.88
2019-02-06T09:07:50.694Z,7.06
2019-02-06T09:08:59.283Z,7.23
2019-02-06T09:09:51.725Z,7.03
2019-02-06T09:10:50.827Z,7.25
2019-02-06T09:11:51.677Z,7.21
2019-02-06T09:12:51.698Z,7.50
2019-02-06T09:13:50.706Z,7.80
2019-02-06T09:14:50.737Z,7.97
2019-02-06T09:15:50.659Z,7.57
2019-02-06T09:16:50.625Z,7.48
2019-02-06T09:17:50.634Z,7.25
2019-02-06T09:18:50.552Z,7.06
2019-02-06T09:19:50.581Z,7.20
2019-02-06T09:20:52.652Z,7.98
2019-02-06T09:21:51.576Z,8.13
2019-02-06T09:22:58.984Z,8.23
2019-02-06T09:25:11.058Z,8.45
2019-02-06T09:26:18.936Z,8.19
2019-02-06T09:28:29.657Z,8.26
2019-02-06T09:29:40.624Z,8.27
2019-02-06T09:31:43.347Z,7.98
2019-02-06T09:32:51.364Z,7.31
2019-02-06T09:33:51.394Z,7.14
2019-02-06T09:34:43.381Z,6.97
2019-02-06T09:35:52.705Z,7.48
2019-02-06T09:36:53.052Z,7.33
2019-02-06T09:37:54.338Z,7.57
2019-02-06T09:38:53.742Z,7.61
2019-02-06T09:41:01.432Z,7.95
2019-02-06T09:42:10.271Z,8.08
2019-02-06T09:43:10.497Z,7.95
2019-02-06T09:44:09.537Z,8.42
2019-02-06T09:46:18.001Z,8.88
2019-02-06T09:47:27.692Z,8.76
2019-02-06T09:48:26.824Z,9.14
2019-02-06T09:49:27.612Z,9.10
2019-02-06T09:50:18.180Z,9.73
2019-02-06T09:51:19.370Z,10.41
2019-02-06T09:52:17.901Z,10.53
2019-02-06T09:53:27.014Z,10.76
2019-02-06T09:54:18.124Z,11.10
2019-02-06T09:55:17.995Z,10.79
2019-02-06T10:00:20.636Z,10.05
2019-02-06T10:01:21.542Z,10.23
2019-02-06T10:02:28.820Z,10.20
2019-02-06T10:03:29.645Z,8.73
2019-02-06T10:04:20.846Z,7.79
2019-02-06T10:05:20.696Z,7.91
2019-02-06T10:06:20.874Z,7.69
2019-02-06T10:07:23.149Z,7.70
2019-02-06T10:08:20.543Z,7.60
2019-02-06T10:09:22.930Z,7.24
2019-02-06T10:10:20.536Z,7.02
2019-02-06T10:11:20.490Z,6.56
2019-02-06T10:12:21.120Z,6.52
2019-02-06T10:13:20.533Z,6.48
2019-02-06T10:14:20.517Z,6.57
2019-02-06T10:15:20.467Z,6.78
2019-02-06T10:16:20.626Z,7.05
2019-02-06T10:17:21.144Z,7.06
2019-02-06T10:18:22.017Z,6.89
2019-02-06T10:19:21.125Z,7.10
2019-02-06T10:20:20.614Z,7.06
2019-02-06T10:21:20.501Z,7.14
2019-02-06T10:22:20.460Z,7.05
2019-02-06T10:23:20.413Z,7.20
2019-02-06T10:24:20.408Z,7.66
2019-02-06T10:25:20.379Z,7.91
2019-02-06T10:27:32.005Z,7.33
2019-02-06T10:28:42.477Z,7.70
2019-02-06T10:29:40.405Z,7.95
2019-02-06T10:30:40.516Z,8.12
2019-02-06T10:31:32.904Z,8.36
2019-02-06T10:34:01.351Z,7.91
2019-02-06T10:35:01.615Z,8.13
2019-02-06T10:36:01.463Z,7.94
2019-02-06T10:37:01.384Z,7.51
2019-02-06T10:38:01.371Z,7.50
2019-02-06T10:39:01.382Z,8.03
2019-02-06T10:40:01.737Z,8.67
2019-02-06T10:41:04.308Z,9.80
2019-02-06T10:42:01.314Z,9.59
2019-02-06T10:43:01.314Z,9.08
2019-02-06T10:44:01.360Z,9.29
2019-02-06T10:45:02.895Z,9.25
2019-02-06T10:46:01.300Z,9.48
2019-02-06T10:47:01.239Z,9.40
2019-02-06T10:48:01.324Z,9.44
2019-02-06T10:49:01.402Z,9.16
2019-02-06T10:50:01.254Z,8.55
2019-02-06T10:51:01.842Z,7.95
2019-02-06T10:52:01.180Z,7.54
2019-02-06T10:53:01.159Z,7.69
2019-02-06T10:54:01.255Z,7.73
2019-02-06T10:55:01.185Z,8.16
2019-02-06T10:56:01.233Z,8.63
2019-02-06T10:57:01.917Z,8.33
2019-02-06T10:58:01.887Z,7.85
2019-02-06T10:59:01.072Z,7.95
2019-02-06T11:00:01.151Z,8.33
2019-02-06T11:01:01.109Z,8.60
2019-02-06T11:02:01.101Z,8.60
2019-02-06T11:03:01.855Z,8.10
2019-02-06T11:04:01.854Z,7.48
2019-02-06T11:05:01.961Z,7.60
2019-02-06T11:06:01.044Z,7.56
2019-02-06T11:07:01.005Z,7.57
2019-02-06T11:08:01.006Z,8.06
2019-02-06T11:09:01.036Z,8.37
2019-02-06T11:10:00.978Z,8.38
2019-02-06T11:11:00.957Z,8.12
2019-02-06T11:12:00.995Z,8.27
2019-02-06T11:13:00.969Z,8.64
2019-02-06T11:14:00.942Z,8.79
2019-02-06T11:15:01.934Z,8.81
2019-02-06T11:16:00.993Z,8.88
2019-02-06T11:19:30.512Z,8.88
2019-02-06T11:20:38.932Z,9.13
2019-02-06T11:21:30.584Z,9.64
2019-02-06T11:22:30.586Z,9.44
2019-02-06T11:23:30.518Z,9.83
2019-02-06T11:24:30.405Z,9.79
2019-02-06T11:25:30.422Z,9.23
2019-02-06T11:26:30.368Z,8.79
2019-02-06T11:27:30.377Z,8.49
2019-02-06T11:28:30.355Z,8.27
2019-02-06T11:29:30.354Z,8.12
2019-02-06T11:30:30.424Z,8.34
2019-02-06T11:31:30.341Z,8.13
2019-02-06T11:32:31.324Z,7.73
2019-02-06T11:33:30.268Z,7.70
2019-02-06T11:34:30.320Z,7.70
2019-02-06T11:35:30.336Z,7.80
2019-02-06T11:36:30.292Z,7.70
2019-02-06T11:37:30.248Z,7.48
2019-02-06T11:38:30.253Z,7.56
2019-02-06T11:39:30.211Z,7.57
2019-02-06T11:40:30.260Z,7.43
2019-02-06T11:41:30.221Z,7.43
2019-02-06T11:42:30.849Z,7.43
2019-02-06T11:43:32.070Z,7.32
2019-02-06T11:44:30.199Z,7.48
2019-02-06T11:45:30.224Z,7.91
2019-02-06T11:46:30.133Z,8.31
2019-02-06T11:47:30.211Z,8.69
2019-02-06T11:48:30.176Z,9.31
2019-02-06T11:49:30.126Z,9.59
2019-02-06T11:50:30.163Z,10.23
2019-02-06T11:51:30.072Z,10.22
2019-02-06T11:53:32.454Z,10.33
2019-02-06T11:54:33.434Z,9.50
2019-02-06T11:55:32.496Z,9.26
2019-02-06T11:56:32.318Z,9.54
2019-02-06T11:57:32.581Z,9.83
2019-02-06T11:58:32.332Z,9.25
2019-02-06T11:59:32.322Z,8.95
2019-02-06T12:00:32.325Z,8.92
2019-02-06T12:01:32.319Z,9.44
2019-02-06T12:02:37.311Z,10.12
2019-02-06T12:03:33.875Z,10.37
2019-02-06T12:04:32.235Z,10.42
2019-02-06T12:05:32.238Z,10.61
2019-02-06T12:06:33.215Z,10.79
2019-02-06T12:07:32.175Z,10.96
2019-02-06T12:08:32.159Z,11.00
2019-02-06T12:09:32.224Z,10.99
2019-02-06T12:10:32.187Z,10.69
2019-02-06T12:11:32.187Z,9.94
2019-02-06T12:12:32.123Z,9.97
2019-02-06T12:13:32.133Z,9.99
2019-02-06T12:14:32.248Z,9.72
2019-02-06T12:15:32.144Z,9.92
2019-02-06T12:16:32.109Z,9.79
2019-02-06T12:17:32.879Z,9.51
2019-02-06T12:18:32.164Z,9.84
2019-02-06T12:19:45.895Z,9.98
2019-02-06T12:20:32.237Z,9.95
2019-02-06T12:24:45.042Z,10.04
2019-02-06T12:27:03.534Z,9.48
2019-02-06T12:30:45.833Z,9.32
2019-02-06T12:31:54.686Z,9.16
2019-02-06T12:32:52.364Z,9.10
2019-02-06T12:33:45.770Z,8.87
2019-02-06T12:34:45.717Z,8.63
2019-02-06T12:35:46.212Z,8.52
2019-02-06T12:36:46.728Z,8.81
2019-02-06T12:37:45.777Z,8.89
2019-02-06T12:38:53.246Z,8.76
2019-02-06T12:39:46.687Z,8.78
2019-02-06T12:40:45.753Z,8.74
2019-02-06T12:41:45.662Z,8.74
2019-02-06T12:42:46.140Z,8.89
2019-02-06T12:43:45.649Z,9.41
2019-02-06T12:44:45.634Z,9.59
2019-02-06T12:45:45.726Z,9.74
2019-02-06T12:46:45.606Z,9.73
2019-02-06T12:47:45.633Z,9.54
2019-02-06T12:48:45.588Z,9.58
2019-02-06T12:49:45.597Z,9.50
2019-02-06T12:50:45.658Z,9.37
2019-02-06T12:51:45.557Z,9.62
2019-02-06T12:52:53.825Z,10.17
2019-02-06T12:53:52.665Z,10.22
2019-02-06T12:54:45.594Z,9.86
2019-02-06T12:55:53.574Z,10.10
2019-02-06T12:56:53.559Z,10.20
2019-02-06T12:57:54.047Z,10.04
2019-02-06T12:58:46.025Z,9.97
2019-02-06T12:59:45.621Z,9.26
2019-02-06T13:00:53.641Z,9.18
2019-02-06T13:01:45.507Z,9.47
2019-02-06T13:02:57.317Z,9.92
2019-02-06T13:05:03.139Z,9.10
2019-02-06T13:06:03.990Z,9.06
2019-02-06T13:07:03.097Z,9.06
2019-02-06T13:08:03.161Z,8.79
2019-02-06T13:09:03.019Z,8.82
2019-02-06T13:10:02.992Z,8.91
2019-02-06T13:11:03.074Z,8.91
2019-02-06T13:12:11.363Z,9.28
2019-02-06T13:13:11.929Z,9.26
2019-02-06T13:14:11.947Z,9.44
2019-02-06T13:15:12.461Z,9.19
2019-02-06T13:16:10.946Z,9.40
2019-02-06T13:18:24.009Z,9.44
2019-02-06T13:19:29.366Z,9.64
2019-02-06T13:20:29.354Z,10.15
2019-02-06T13:21:28.083Z,10.60
2019-02-06T13:22:28.675Z,10.40
2019-02-06T13:24:38.143Z,10.48
2019-02-06T13:28:07.949Z,10.67
2019-02-06T13:32:52.724Z,11.26
2019-02-06T13:33:52.769Z,10.63
2019-02-06T13:34:52.655Z,10.71
2019-02-06T13:35:59.750Z,10.82
2019-02-06T13:37:01.435Z,10.76
2019-02-06T13:38:01.494Z,9.79
2019-02-06T13:38:53.462Z,9.21
2019-02-06T13:39:52.584Z,9.06
2019-02-06T13:40:52.624Z,8.99
2019-02-06T13:41:52.591Z,9.00
2019-02-06T13:42:52.559Z,9.04
2019-02-06T13:44:01.047Z,9.16
2019-02-06T13:46:10.314Z,9.28
2019-02-06T13:47:10.213Z,9.46
2019-02-06T13:48:10.312Z,9.39
2019-02-06T13:49:12.026Z,9.37
2019-02-06T13:50:21.346Z,9.23
2019-02-06T13:51:17.448Z,9.39
2019-02-06T13:53:22.104Z,9.39
2019-02-06T13:54:22.628Z,8.95
2019-02-06T13:55:22.157Z,8.79
2019-02-06T13:56:22.035Z,8.41
2019-02-06T13:57:33.159Z,8.44
2019-02-06T13:58:22.998Z,8.24
2019-02-06T13:59:21.986Z,8.10
2019-02-06T14:00:21.955Z,7.93
2019-02-06T14:01:25.839Z,7.66
2019-02-06T14:02:21.950Z,7.76
2019-02-06T14:03:21.917Z,7.82
2019-02-06T14:04:21.931Z,7.90
2019-02-06T14:05:21.916Z,7.94
2019-02-06T14:06:29.163Z,7.97
2019-02-06T14:07:22.114Z,7.91
2019-02-06T14:08:24.671Z,7.95
2019-02-06T14:09:23.925Z,8.27
2019-02-06T14:10:21.845Z,8.34
2019-02-06T14:11:22.620Z,8.92
2019-02-06T14:12:21.782Z,9.36
2019-02-06T14:13:21.846Z,9.59
2019-02-06T14:14:21.847Z,9.40
2019-02-06T14:15:21.840Z,9.56
2019-02-06T14:16:23.611Z,9.69
2019-02-06T14:17:21.774Z,9.50
2019-02-06T14:18:21.775Z,9.23
2019-02-06T14:19:21.752Z,9.28
2019-02-06T14:20:21.784Z,8.71
2019-02-06T14:21:23.601Z,9.21
2019-02-06T14:22:21.747Z,9.36
2019-02-06T14:23:21.800Z,8.99
2019-02-06T14:24:21.706Z,9.29
2019-02-06T14:25:21.674Z,9.50
2019-02-06T14:26:21.713Z,9.43
2019-02-06T14:27:21.685Z,8.94
2019-02-06T14:28:21.679Z,8.33
2019-02-06T14:29:21.673Z,8.15
2019-02-06T14:30:21.663Z,7.98
2019-02-06T14:31:21.653Z,7.57
2019-02-06T14:32:22.712Z,7.25
2019-02-06T14:33:21.597Z,7.05
2019-02-06T14:34:21.618Z,6.99
2019-02-06T14:35:21.590Z,7.10
2019-02-06T14:36:21.675Z,7.05
2019-02-06T14:37:22.111Z,6.96
2019-02-06T14:38:21.559Z,6.87
2019-02-06T14:39:22.080Z,6.48
2019-02-06T14:40:22.082Z,6.33
2019-02-06T14:41:21.557Z,6.36
2019-02-06T14:42:21.470Z,6.28
2019-02-06T14:43:22.087Z,6.22
2019-02-06T14:44:21.500Z,6.07
2019-02-06T14:45:21.488Z,6.05
2019-02-06T14:46:21.487Z,6.02
2019-02-06T14:47:21.477Z,6.07
2019-02-06T14:48:21.412Z,6.09
2019-02-06T14:49:21.430Z,5.98
2019-02-06T14:50:31.147Z,6.01
2019-02-06T14:51:21.668Z,5.99
2019-02-06T14:52:21.520Z,6.02
2019-02-06T14:53:21.401Z,5.86
2019-02-06T14:54:29.768Z,5.79
2019-02-06T14:55:30.473Z,5.68
2019-02-06T14:56:28.602Z,5.68
2019-02-06T14:57:21.577Z,5.53
2019-02-06T15:00:59.467Z,5.43
2019-02-06T15:03:14.124Z,5.35
2019-02-06T15:04:15.869Z,5.30
2019-02-06T15:05:14.237Z,5.30
2019-02-06T15:06:14.105Z,5.25
2019-02-06T15:07:14.136Z,5.28
2019-02-06T15:08:14.101Z,5.36
2019-02-06T15:09:14.139Z,5.33
2019-02-06T15:10:14.128Z,5.26
2019-02-06T15:11:21.147Z,5.23
2019-02-06T15:12:17.058Z,5.25
2019-02-06T15:13:14.034Z,5.15
2019-02-06T15:14:14.062Z,5.08
2019-02-06T15:15:14.059Z,5.12
2019-02-06T15:16:14.020Z,5.08
2019-02-06T15:17:13.999Z,5.11
2019-02-06T15:18:13.998Z,5.14
2019-02-06T15:19:14.000Z,5.11
2019-02-06T15:20:13.948Z,5.11
2019-02-06T15:21:14.958Z,5.08
2019-02-06T15:22:13.936Z,5.02
2019-02-06T15:27:02.748Z,4.80
2019-02-06T15:28:10.101Z,4.87
2019-02-06T15:29:12.553Z,4.86
2019-02-06T15:30:03.312Z,4.86
2019-02-06T15:31:02.683Z,4.84
2019-02-06T15:32:03.695Z,4.74
2019-02-06T15:33:02.638Z,4.75
2019-02-06T15:34:02.641Z,4.70
2019-02-06T15:35:02.593Z,4.73
2019-02-06T15:36:02.743Z,4.62
2019-02-06T15:37:03.157Z,4.70
2019-02-06T15:38:02.597Z,4.60
2019-02-06T15:39:02.561Z,4.70
2019-02-06T15:40:02.588Z,4.58
2019-02-06T15:41:02.597Z,4.60
2019-02-06T15:42:03.621Z,4.58
2019-02-06T15:43:02.612Z,4.48
2019-02-06T15:44:02.543Z,4.50
2019-02-06T15:45:02.572Z,4.52
2019-02-06T15:46:02.562Z,4.52
2019-02-06T15:47:02.565Z,4.45
2019-02-06T15:48:03.264Z,4.55
2019-02-06T15:49:02.503Z,4.42
2019-02-06T15:50:02.444Z,4.37
2019-02-06T15:51:03.620Z,4.48
2019-02-06T15:52:04.838Z,4.38
2019-02-06T15:53:02.465Z,4.32
2019-02-06T15:54:02.418Z,4.37
2019-02-06T15:55:02.429Z,4.37
2019-02-06T15:56:02.378Z,4.34
2019-02-06T15:57:02.392Z,4.23
2019-02-06T15:58:02.385Z,4.35
2019-02-06T15:59:02.347Z,4.22
2019-02-06T16:00:02.379Z,4.28
2019-02-06T16:01:02.334Z,4.28
2019-02-06T16:02:02.413Z,4.31
2019-02-06T16:03:02.337Z,4.31
2019-02-06T16:04:02.309Z,4.31
2019-02-06T16:05:02.370Z,4.20
2019-02-06T16:06:11.229Z,4.28
2019-02-06T16:07:09.767Z,4.23
2019-02-06T16:09:20.867Z,4.26
2019-02-06T16:10:30.693Z,4.28
2019-02-06T16:11:29.724Z,4.23
2019-02-06T16:12:20.813Z,4.22
2019-02-06T16:14:37.917Z,4.24
2019-02-06T16:15:37.915Z,4.20
2019-02-06T16:16:38.786Z,4.13
2019-02-06T16:17:38.122Z,4.17
2019-02-06T16:18:38.009Z,4.22